createdAt,value
2022-09-10T00:01:30.525Z,67.89
2022-09-10T00:03:59.177Z,67.92
2022-09-10T00:06:27.945Z,67.65
2022-09-10T00:09:00.511Z,68.08
2022-09-10T00:11:32.479Z,67.78
2022-09-10T00:14:01.782Z,68.40
2022-09-10T00:16:31.175Z,68.53
2022-09-10T00:19:01.289Z,68.14
2022-09-10T00:21:30.185Z,68.26
2022-09-10T00:23:58.067Z,68.20
2022-09-10T00:26:35.309Z,67.75
2022-09-10T00:29:02.810Z,67.08
2022-09-10T00:31:32.811Z,66.88
2022-09-10T00:34:03.073Z,66.67
2022-09-10T00:36:40.358Z,66.17
2022-09-10T00:39:15.235Z,65.97
2022-09-10T00:41:46.197Z,65.92
2022-09-10T00:44:40.981Z,66.33
2022-09-10T00:47:19.915Z,65.59
2022-09-10T00:50:17.105Z,65.88
2022-09-10T00:52:47.532Z,65.17
2022-09-10T00:55:16.877Z,64.59
2022-09-10T00:57:47.327Z,64.26
2022-09-10T01:00:15.948Z,64.51
2022-09-10T01:02:44.334Z,64.48
2022-09-10T01:05:12.800Z,64.46
2022-09-10T01:07:41.115Z,64.89
2022-09-10T01:10:18.345Z,63.47
2022-09-10T01:13:16.149Z,65.32
2022-09-10T01:16:19.005Z,65.51
2022-09-10T01:19:10.905Z,66.67
2022-09-10T01:22:01.091Z,67.32
2022-09-10T01:24:34.237Z,67.74
2022-09-10T01:27:55.608Z,68.39
2022-09-10T01:30:37.259Z,70.19
2022-09-10T01:33:24.839Z,70.52
2022-09-10T01:35:57.983Z,71.56
2022-09-10T01:38:35.588Z,72.27
2022-09-10T01:41:03.194Z,72.73
2022-09-10T01:43:31.252Z,73.83
2022-09-10T01:46:04.194Z,73.70
2022-09-10T01:49:11.592Z,73.46
2022-09-10T01:52:01.158Z,73.84
2022-09-10T01:55:12.726Z,74.27
2022-09-10T01:58:04.327Z,75.11
2022-09-10T02:00:35.416Z,74.66
2022-09-10T02:03:11.437Z,74.86
2022-09-10T02:05:42.450Z,73.95
2022-09-10T02:08:23.479Z,73.88
2022-09-10T02:10:59.399Z,74.01
2022-09-10T02:13:29.992Z,74.87
2022-09-10T02:15:59.583Z,74.66
2022-09-10T02:18:36.042Z,74.18
2022-09-10T02:21:03.727Z,74.40
2022-09-10T02:23:44.743Z,74.41
2022-09-10T02:26:14.554Z,74.85
2022-09-10T02:28:45.835Z,75.96
2022-09-10T02:31:13.908Z,76.79
2022-09-10T02:33:41.198Z,75.38
2022-09-10T02:36:11.601Z,74.16
2022-09-10T02:38:38.959Z,75.69
2022-09-10T02:41:06.236Z,75.42
2022-09-10T02:43:36.086Z,74.84
2022-09-10T02:46:03.726Z,75.73
2022-09-10T02:48:31.240Z,75.01
2022-09-10T02:50:58.951Z,75.25
2022-09-10T02:53:26.261Z,75.61
2022-09-10T02:55:54.447Z,75.07
2022-09-10T02:58:21.712Z,74.92
2022-09-10T03:00:48.987Z,74.92
2022-09-10T03:03:17.307Z,74.22
2022-09-10T03:05:44.797Z,74.82
2022-09-10T03:08:12.073Z,75.54
2022-09-10T03:10:39.553Z,76.23
2022-09-10T03:13:06.969Z,76.43
2022-09-10T03:15:34.278Z,76.08
2022-09-10T03:18:01.502Z,76.58
2022-09-10T03:20:28.787Z,76.84
2022-09-10T03:22:57.315Z,76.78
2022-09-10T03:25:24.666Z,77.02
2022-09-10T03:27:52.431Z,76.65
2022-09-10T03:30:21.277Z,76.49
2022-09-10T03:32:50.349Z,76.51
2022-09-10T03:35:18.390Z,75.84
2022-09-10T03:37:45.707Z,76.48
2022-09-10T03:40:13.024Z,76.61
2022-09-10T03:42:40.351Z,76.93
2022-09-10T03:45:08.562Z,76.77
2022-09-10T03:47:37.739Z,76.26
2022-09-10T03:50:06.506Z,76.50
2022-09-10T03:52:33.772Z,76.56
2022-09-10T03:55:00.999Z,76.75
2022-09-10T03:57:28.224Z,76.45
2022-09-10T03:59:56.744Z,76.32
2022-09-10T04:02:24.064Z,76.13
2022-09-10T04:04:51.349Z,76.46
2022-09-10T04:07:18.597Z,76.57
2022-09-10T04:09:46.253Z,76.35
2022-09-10T04:12:13.443Z,76.11
2022-09-10T04:14:40.736Z,77.22
2022-09-10T04:17:07.947Z,77.38
2022-09-10T04:19:35.497Z,76.90
2022-09-10T04:22:03.146Z,77.65
2022-09-10T04:24:30.702Z,77.78
2022-09-10T04:26:59.122Z,77.44
2022-09-10T04:29:26.352Z,77.97
2022-09-10T04:31:55.362Z,77.83
2022-09-10T04:34:22.874Z,77.83
2022-09-10T04:36:50.196Z,77.72
2022-09-10T04:39:17.614Z,77.92
2022-09-10T04:41:44.851Z,77.84
2022-09-10T04:44:12.100Z,77.65
2022-09-10T04:46:39.441Z,78.28
2022-09-10T04:49:06.935Z,77.75
2022-09-10T04:51:34.141Z,77.68
2022-09-10T04:54:01.878Z,77.74
2022-09-10T04:56:29.479Z,77.55
2022-09-10T04:58:56.752Z,77.64
2022-09-10T05:01:24.048Z,77.09
2022-09-10T05:03:51.342Z,77.19
2022-09-10T05:06:18.553Z,77.08
2022-09-10T05:08:45.756Z,77.82
2022-09-10T05:11:13.304Z,78.40
2022-09-10T05:13:41.604Z,78.60
2022-09-10T05:16:08.917Z,78.07
2022-09-10T05:18:36.304Z,77.98
2022-09-10T05:21:05.362Z,78.19
2022-09-10T05:23:33.008Z,77.26
2022-09-10T05:26:00.225Z,77.92
2022-09-10T05:28:27.521Z,77.57
2022-09-10T05:30:54.772Z,77.72
2022-09-10T05:33:22.189Z,77.99
2022-09-10T05:35:53.080Z,77.16
2022-09-10T05:38:21.003Z,77.71
2022-09-10T05:40:49.125Z,76.72
2022-09-10T05:43:16.606Z,76.08
2022-09-10T05:45:43.983Z,76.53
2022-09-10T05:48:11.366Z,75.78
2022-09-10T05:50:38.757Z,76.17
2022-09-10T05:53:06.448Z,75.53
2022-09-10T05:55:33.805Z,76.21
2022-09-10T05:58:01.273Z,76.20
2022-09-10T06:00:28.770Z,76.25
2022-09-10T06:02:57.459Z,76.25
2022-09-10T06:05:24.928Z,77.09
2022-09-10T06:07:52.445Z,76.95
2022-09-10T06:10:20.113Z,76.35
2022-09-10T06:12:52.149Z,76.12
2022-09-10T06:15:21.295Z,74.76
2022-09-10T06:17:48.675Z,76.11
2022-09-10T06:20:16.095Z,75.60
2022-09-10T06:22:43.479Z,76.03
2022-09-10T06:25:10.842Z,76.04
2022-09-10T06:27:38.390Z,76.13
2022-09-10T06:30:06.455Z,74.97
2022-09-10T06:32:33.717Z,74.61
2022-09-10T06:35:00.969Z,76.17
2022-09-10T06:37:28.260Z,75.95
2022-09-10T06:39:55.605Z,74.81
2022-09-10T06:42:23.987Z,75.67
2022-09-10T06:44:51.437Z,76.36
2022-09-10T06:48:01.114Z,76.27
2022-09-10T06:50:07.079Z,75.20
2022-09-10T06:52:34.297Z,75.31
2022-09-10T06:55:01.540Z,75.02
2022-09-10T06:57:29.459Z,73.79
2022-09-10T06:59:56.699Z,74.57
2022-09-10T07:02:24.141Z,74.22
2022-09-10T07:04:51.443Z,74.51
2022-09-10T07:07:20.220Z,74.71
2022-09-10T07:09:47.462Z,75.24
2022-09-10T07:12:14.724Z,73.93
2022-09-10T07:14:42.427Z,73.61
2022-09-10T07:17:09.641Z,73.70
2022-09-10T07:19:37.771Z,75.26
2022-09-10T07:22:05.261Z,76.44
2022-09-10T07:24:32.556Z,73.09
2022-09-10T07:27:00.132Z,71.69
2022-09-10T07:29:29.868Z,71.87
2022-09-10T07:31:57.152Z,70.58
2022-09-10T07:34:24.725Z,71.98
2022-09-10T07:36:52.060Z,71.86
2022-09-10T07:39:22.413Z,71.33
2022-09-10T07:41:53.495Z,70.29
2022-09-10T07:44:20.970Z,69.78
2022-09-10T07:46:48.171Z,68.22
2022-09-10T07:49:15.429Z,69.53
2022-09-10T07:51:42.679Z,67.83
2022-09-10T07:54:09.847Z,66.75
2022-09-10T07:56:37.973Z,66.33
2022-09-10T07:59:05.181Z,67.02
2022-09-10T08:01:32.732Z,66.44
2022-09-10T08:04:00.469Z,67.81
2022-09-10T08:06:27.720Z,67.46
2022-09-10T08:08:55.330Z,67.37
2022-09-10T08:11:22.614Z,68.10
2022-09-10T08:13:52.731Z,67.50
2022-09-10T08:16:25.074Z,66.50
2022-09-10T08:18:52.538Z,64.16
2022-09-10T08:21:20.657Z,64.47
2022-09-10T08:23:56.851Z,63.82
2022-09-10T08:26:26.373Z,63.72
2022-09-10T08:28:58.227Z,64.86
2022-09-10T08:31:26.628Z,66.16
2022-09-10T08:33:56.849Z,64.97
2022-09-10T08:36:25.771Z,64.24
2022-09-10T08:38:59.524Z,64.16
2022-09-10T08:41:39.342Z,63.34
2022-09-10T08:44:42.499Z,62.90
2022-09-10T08:47:25.233Z,62.88
2022-09-10T08:49:58.507Z,62.01
2022-09-10T08:52:42.296Z,63.80
2022-09-10T08:55:18.659Z,63.76
2022-09-10T08:57:48.297Z,66.60
2022-09-10T09:00:25.395Z,63.92
2022-09-10T09:03:05.504Z,63.60
2022-09-10T09:05:54.351Z,65.67
2022-09-10T09:08:28.398Z,65.71
2022-09-10T09:10:55.566Z,64.72
2022-09-10T09:13:38.794Z,64.98
2022-09-10T09:16:37.432Z,62.68
2022-09-10T09:19:35.392Z,63.34
2022-09-10T09:22:21.559Z,63.55
2022-09-10T09:24:58.027Z,65.27
2022-09-10T09:27:32.498Z,62.66
2022-09-10T09:30:06.925Z,60.74
2022-09-10T09:32:40.324Z,63.38
2022-09-10T09:35:38.774Z,61.66
2022-09-10T09:38:14.805Z,62.18
2022-09-10T09:41:12.690Z,61.64
2022-09-10T09:43:58.865Z,60.28
2022-09-10T09:46:26.440Z,62.38
2022-09-10T09:48:59.343Z,60.51
2022-09-10T09:51:32.537Z,60.41
2022-09-10T09:57:00.328Z,62.61
2022-09-10T09:59:36.893Z,62.48
2022-09-10T10:02:15.624Z,61.12
2022-09-10T10:05:25.685Z,60.18
2022-09-10T10:07:53.007Z,61.10
2022-09-10T10:10:28.656Z,59.89
2022-09-10T10:12:57.209Z,59.82
2022-09-10T10:15:44.508Z,60.50
2022-09-10T10:18:24.950Z,59.00
2022-09-10T10:21:29.686Z,61.03
2022-09-10T10:23:57.152Z,61.98
2022-09-10T10:26:45.849Z,61.65
2022-09-10T10:29:21.697Z,59.07
2022-09-10T10:31:51.214Z,60.60
2022-09-10T10:34:57.018Z,62.51
2022-09-10T10:38:01.897Z,63.24
2022-09-10T10:40:57.779Z,61.67
2022-09-10T10:44:09.591Z,62.74
2022-09-10T10:47:06.112Z,61.19
2022-09-10T10:50:16.212Z,60.73
2022-09-10T10:53:08.556Z,59.56
2022-09-10T10:55:47.436Z,60.02
2022-09-10T10:58:26.271Z,59.14
2022-09-10T11:01:05.621Z,57.44
2022-09-10T11:03:51.520Z,58.16
2022-09-10T11:06:25.690Z,58.53
2022-09-10T11:09:10.398Z,57.87
2022-09-10T11:11:52.832Z,57.99
2022-09-10T11:14:23.239Z,59.51
2022-09-10T11:17:02.456Z,58.97
2022-09-10T11:20:29.687Z,57.70
2022-09-10T11:23:34.182Z,58.97
2022-09-10T11:26:15.273Z,58.31
2022-09-10T11:29:23.225Z,56.13
2022-09-10T11:32:43.784Z,54.54
2022-09-10T11:35:39.924Z,55.54
2022-09-10T11:38:53.148Z,56.85
2022-09-10T11:41:26.818Z,57.39
2022-09-10T11:44:37.996Z,57.64
2022-09-10T11:47:25.079Z,55.96
2022-09-10T11:50:23.386Z,57.20
2022-09-10T11:52:51.349Z,53.97
2022-09-10T11:55:18.799Z,53.56
2022-09-10T12:01:49.503Z,55.00
2022-09-10T12:04:59.473Z,53.61
2022-09-10T12:07:53.916Z,55.50
2022-09-10T12:10:28.243Z,52.81
2022-09-10T12:12:55.475Z,50.39
2022-09-10T12:15:27.073Z,50.56
2022-09-10T12:18:15.574Z,51.91
2022-09-10T12:21:09.789Z,52.57
2022-09-10T12:23:40.533Z,53.55
2022-09-10T12:26:16.477Z,53.29
2022-09-10T12:28:43.634Z,53.30
2022-09-10T12:31:15.229Z,50.38
2022-09-10T12:33:45.358Z,51.57
2022-09-10T12:36:36.733Z,52.41
2022-09-10T12:39:27.782Z,52.88
2022-09-10T12:42:29.173Z,53.24
2022-09-10T12:44:56.564Z,53.49
2022-09-10T12:47:43.765Z,52.27
2022-09-10T12:50:30.205Z,51.74
2022-09-10T12:53:47.396Z,52.44
2022-09-10T12:56:54.336Z,52.69
2022-09-10T12:59:30.350Z,51.91
2022-09-10T13:01:59.059Z,52.97
2022-09-10T13:04:38.157Z,52.79
2022-09-10T13:07:21.987Z,52.50
2022-09-10T13:10:21.674Z,53.14
2022-09-10T13:12:57.243Z,52.72
2022-09-10T13:15:29.978Z,53.11
2022-09-10T13:17:57.279Z,52.18
2022-09-10T13:20:27.588Z,52.66
2022-09-10T13:23:09.816Z,50.58
2022-09-10T13:25:43.287Z,51.87
2022-09-10T13:28:30.020Z,51.38
2022-09-10T13:31:10.329Z,51.50
2022-09-10T13:33:52.259Z,53.07
2022-09-10T13:36:57.590Z,52.31
2022-09-10T13:39:37.189Z,52.50
2022-09-10T13:42:25.778Z,53.82
2022-09-10T13:45:33.764Z,52.12
2022-09-10T13:48:03.321Z,52.22
2022-09-10T13:51:02.540Z,50.91
2022-09-10T13:53:31.469Z,51.78
2022-09-10T13:56:14.362Z,51.78
2022-09-10T13:58:49.740Z,53.39
2022-09-10T14:01:17.949Z,54.23
2022-09-10T14:03:45.516Z,54.21
2022-09-10T14:06:21.787Z,56.45
2022-09-10T14:09:03.344Z,59.16
2022-09-10T14:11:35.581Z,59.58
2022-09-10T14:14:18.712Z,60.16
2022-09-10T14:16:54.268Z,60.36
2022-09-10T14:19:33.667Z,61.54
2022-09-10T14:22:01.709Z,60.65
2022-09-10T14:24:33.697Z,60.27
2022-09-10T14:27:32.950Z,61.43
2022-09-10T14:30:18.633Z,60.88
2022-09-10T14:32:48.996Z,61.17
2022-09-10T14:35:43.094Z,61.78
2022-09-10T14:38:34.695Z,61.90
2022-09-10T14:41:26.099Z,62.93
2022-09-10T14:44:29.822Z,62.17
2022-09-10T14:47:08.987Z,61.60
2022-09-10T14:49:39.612Z,61.12
2022-09-10T14:52:08.105Z,61.63
2022-09-10T14:54:35.652Z,62.60
2022-09-10T14:57:13.853Z,60.61
2022-09-10T14:59:44.091Z,60.14
2022-09-10T15:02:28.911Z,59.97
2022-09-10T15:04:57.055Z,60.27
2022-09-10T15:07:24.695Z,58.97
2022-09-10T15:09:58.607Z,59.58
2022-09-10T15:12:28.372Z,58.50
2022-09-10T15:14:57.221Z,58.48
2022-09-10T15:17:24.604Z,58.09
2022-09-10T15:19:52.306Z,58.35
2022-09-10T15:22:26.704Z,57.60
2022-09-10T15:25:11.497Z,57.93
2022-09-10T15:27:39.085Z,57.18
2022-09-10T15:30:07.509Z,57.01
2022-09-10T15:32:34.777Z,57.08
2022-09-10T15:35:03.410Z,57.07
2022-09-10T15:37:30.697Z,57.40
2022-09-10T15:39:58.171Z,57.79
2022-09-10T15:42:25.473Z,57.85
2022-09-10T15:44:52.777Z,58.11
2022-09-10T15:47:20.005Z,58.56
2022-09-10T15:49:47.348Z,59.21
2022-09-10T15:52:14.587Z,59.05
2022-09-10T15:54:43.175Z,59.28
2022-09-10T15:57:10.429Z,59.53
2022-09-10T15:59:37.705Z,59.60
2022-09-10T16:02:06.272Z,60.03
2022-09-10T16:04:36.208Z,60.15
2022-09-10T16:07:05.014Z,60.50
2022-09-10T16:09:32.919Z,60.40
2022-09-10T16:12:00.376Z,60.81
2022-09-10T16:14:27.733Z,61.06
2022-09-10T16:16:54.999Z,61.44
2022-09-10T16:19:22.379Z,61.25
2022-09-10T16:21:50.056Z,61.13
2022-09-10T16:24:17.289Z,61.32
2022-09-10T16:26:45.999Z,61.39
2022-09-10T16:29:16.670Z,62.01
2022-09-10T16:31:48.173Z,61.86
2022-09-10T16:34:18.931Z,62.05
2022-09-10T16:36:51.471Z,62.25
2022-09-10T16:39:20.229Z,61.87
2022-09-10T16:41:50.026Z,62.23
2022-09-10T16:44:19.273Z,62.55
2022-09-10T16:46:47.261Z,63.02
2022-09-10T16:49:18.436Z,62.94
2022-09-10T16:51:47.797Z,63.34
2022-09-10T16:54:15.990Z,64.24
2022-09-10T16:56:46.392Z,63.44
2022-09-10T16:59:23.297Z,63.62
2022-09-10T17:01:52.119Z,63.76
2022-09-10T17:04:27.569Z,63.96
2022-09-10T17:06:56.313Z,64.18
2022-09-10T17:09:24.946Z,63.84
2022-09-10T17:11:52.621Z,63.91
2022-09-10T17:14:19.936Z,63.89
2022-09-10T17:16:48.198Z,64.02
2022-09-10T17:19:23.596Z,64.30
2022-09-10T17:21:55.269Z,64.41
2022-09-10T17:24:26.613Z,64.65
2022-09-10T17:26:55.384Z,64.15
2022-09-10T17:29:25.335Z,64.35
2022-09-10T17:31:53.081Z,64.44
2022-09-10T17:34:21.687Z,64.22
2022-09-10T17:36:49.941Z,64.50
2022-09-10T17:39:18.188Z,64.88
2022-09-10T17:41:46.063Z,64.69
2022-09-10T17:44:14.664Z,64.99
2022-09-10T17:46:42.987Z,65.32
2022-09-10T17:49:13.568Z,65.38
2022-09-10T17:51:41.411Z,65.49
2022-09-10T17:54:08.936Z,65.19
2022-09-10T17:56:38.222Z,65.41
2022-09-10T17:59:06.746Z,65.59
2022-09-10T18:01:40.131Z,65.74
2022-09-10T18:04:09.335Z,65.53
2022-09-10T18:06:37.218Z,65.68
2022-09-10T18:09:06.631Z,65.48
2022-09-10T18:11:40.798Z,65.69
2022-09-10T18:14:12.279Z,65.74
2022-09-10T18:16:39.474Z,65.85
2022-09-10T18:19:14.251Z,65.84
2022-09-10T18:21:44.305Z,66.06
2022-09-10T18:24:14.313Z,66.09
2022-09-10T18:26:44.567Z,66.39
2022-09-10T18:29:22.258Z,66.22
2022-09-10T18:31:53.163Z,66.52
2022-09-10T18:34:27.751Z,66.70
2022-09-10T18:37:01.802Z,66.78
2022-09-10T18:39:32.555Z,67.33
2022-09-10T18:42:03.457Z,66.71
2022-09-10T18:44:34.215Z,66.61
2022-09-10T18:47:01.878Z,66.45
2022-09-10T18:49:29.903Z,66.47
2022-09-10T18:51:57.999Z,66.71
2022-09-10T18:54:31.376Z,66.55
2022-09-10T18:56:59.460Z,66.57
2022-09-10T18:59:28.001Z,66.87
2022-09-10T19:01:56.096Z,66.52
2022-09-10T19:04:29.456Z,66.75
2022-09-10T19:07:00.171Z,66.44
2022-09-10T19:09:31.473Z,66.67
2022-09-10T19:12:02.896Z,66.69
2022-09-10T19:14:35.111Z,66.42
2022-09-10T19:17:03.740Z,66.45
2022-09-10T19:19:33.983Z,66.58
2022-09-10T19:22:06.204Z,66.59
2022-09-10T19:24:54.050Z,66.66
2022-09-10T19:27:22.238Z,66.70
2022-09-10T19:29:50.258Z,66.89
2022-09-10T19:32:19.768Z,66.38
2022-09-10T19:34:55.502Z,66.83
2022-09-10T19:37:22.722Z,66.85
2022-09-10T19:39:50.045Z,67.26
2022-09-10T19:42:17.412Z,66.93
2022-09-10T19:44:44.699Z,66.90
2022-09-10T19:47:11.968Z,67.12
2022-09-10T19:49:39.231Z,67.17
2022-09-10T19:52:06.535Z,67.38
2022-09-10T19:54:33.775Z,67.18
2022-09-10T19:57:01.012Z,67.58
2022-09-10T19:59:28.261Z,67.30
2022-09-10T20:01:55.647Z,67.53
2022-09-10T20:04:23.040Z,67.37
2022-09-10T20:06:50.737Z,67.25
2022-09-10T20:09:18.278Z,67.74
2022-09-10T20:11:45.588Z,68.26
2022-09-10T20:14:14.574Z,68.05
2022-09-10T20:16:44.728Z,68.09
2022-09-10T20:19:18.350Z,68.27
2022-09-10T20:21:46.551Z,68.19
2022-09-10T20:24:14.439Z,67.91
2022-09-10T20:26:43.819Z,67.99
2022-09-10T20:29:14.739Z,68.07
2022-09-10T20:31:43.647Z,67.91
2022-09-10T20:34:17.754Z,67.69
2022-09-10T20:36:45.212Z,68.13
2022-09-10T20:39:15.121Z,67.58
2022-09-10T20:41:43.811Z,67.66
2022-09-10T20:44:14.633Z,67.76
2022-09-10T20:46:42.638Z,67.94
2022-09-10T20:49:12.107Z,67.90
2022-09-10T20:51:41.049Z,67.70
2022-09-10T20:54:13.220Z,67.54
2022-09-10T20:56:40.770Z,67.93
2022-09-10T20:59:08.377Z,67.71
2022-09-10T21:01:35.838Z,67.73
2022-09-10T21:04:04.164Z,67.71
2022-09-10T21:06:34.443Z,67.92
2022-09-10T21:09:02.767Z,68.11
2022-09-10T21:11:33.400Z,68.48
2022-09-10T21:14:03.594Z,68.92
2022-09-10T21:16:36.618Z,68.74
2022-09-10T21:19:11.782Z,68.45
2022-09-10T21:21:41.504Z,68.30
2022-09-10T21:24:20.456Z,68.48
2022-09-10T21:26:49.671Z,68.75
2022-09-10T21:29:22.469Z,69.38
2022-09-10T21:31:55.956Z,68.94
2022-09-10T21:34:24.308Z,68.83
2022-09-10T21:36:52.191Z,69.16
2022-09-10T21:39:20.541Z,69.47
2022-09-10T21:41:50.853Z,69.27
2022-09-10T21:44:23.625Z,69.47
2022-09-10T21:46:52.076Z,69.15
2022-09-10T21:49:21.046Z,69.21
2022-09-10T21:51:48.891Z,69.09
2022-09-10T21:54:22.262Z,68.60
2022-09-10T21:56:51.219Z,68.86
2022-09-10T21:59:21.491Z,68.72
2022-09-10T22:01:49.641Z,68.30
2022-09-10T22:04:22.211Z,68.78
2022-09-10T22:06:51.128Z,68.73
2022-09-10T22:09:19.923Z,68.97
2022-09-10T22:11:51.330Z,69.05
2022-09-10T22:14:21.901Z,69.01
2022-09-10T22:16:50.344Z,69.76
2022-09-10T22:19:24.586Z,68.95
2022-09-10T22:21:54.279Z,69.20
2022-09-10T22:24:22.303Z,68.87
2022-09-10T22:26:49.663Z,68.70
2022-09-10T22:29:19.355Z,68.82
2022-09-10T22:31:47.789Z,69.08
2022-09-10T22:34:17.451Z,69.22
2022-09-10T22:36:46.809Z,69.19
2022-09-10T22:39:22.312Z,69.25
2022-09-10T22:41:51.239Z,68.73
2022-09-10T22:44:19.953Z,69.14
2022-09-10T22:46:47.561Z,69.19
2022-09-10T22:49:16.182Z,68.83
2022-09-10T22:51:44.092Z,69.40
2022-09-10T22:54:11.714Z,69.47
2022-09-10T22:56:39.740Z,69.46
2022-09-10T22:59:10.045Z,69.88
2022-09-10T23:01:38.559Z,70.05
2022-09-10T23:04:08.298Z,69.63
2022-09-10T23:06:38.646Z,70.15
2022-09-10T23:09:16.989Z,69.82
2022-09-10T23:11:45.581Z,70.07
2022-09-10T23:14:19.255Z,69.66
2022-09-10T23:16:49.850Z,69.76
2022-09-10T23:19:21.566Z,69.45
2022-09-10T23:21:52.669Z,69.18
2022-09-10T23:24:24.451Z,69.41
2022-09-10T23:27:04.785Z,70.07
2022-09-10T23:29:32.098Z,70.12
2022-09-10T23:31:59.336Z,69.98
2022-09-10T23:34:26.625Z,70.22
2022-09-10T23:36:54.591Z,69.69
2022-09-10T23:39:24.419Z,69.78
2022-09-10T23:41:55.572Z,69.41
2022-09-10T23:44:23.589Z,69.50
2022-09-10T23:46:50.911Z,70.28
2022-09-10T23:49:18.238Z,70.40
2022-09-10T23:51:46.006Z,69.76
2022-09-10T23:54:13.622Z,70.01
2022-09-10T23:56:41.158Z,69.76
2022-09-10T23:59:10.070Z,70.04
